createdAt,value
2018-09-03T00:00:58.059Z,0
2018-09-03T00:02:08.018Z,0
2018-09-03T00:03:18.000Z,0
2018-09-03T00:04:27.972Z,0
2018-09-03T00:05:37.671Z,0
2018-09-03T00:06:47.649Z,0
2018-09-03T00:07:57.355Z,0
2018-09-03T00:09:07.327Z,0
2018-09-03T00:10:17.277Z,0
2018-09-03T00:11:27.226Z,0
2018-09-03T00:12:37.209Z,0
2018-09-03T00:13:46.912Z,0
2018-09-03T00:14:56.630Z,0
2018-09-03T00:16:06.613Z,0
2018-09-03T00:17:16.575Z,0
2018-09-03T00:18:26.282Z,0
2018-09-03T00:19:35.984Z,0
2018-09-03T00:20:45.937Z,0
2018-09-03T00:21:55.895Z,0
2018-09-03T00:23:05.351Z,0
2018-09-03T00:24:15.339Z,0
2018-09-03T00:25:25.315Z,0
2018-09-03T00:26:35.275Z,0
2018-09-03T00:27:45.250Z,0
2018-09-03T00:28:55.216Z,0
2018-09-03T00:30:05.184Z,0
2018-09-03T00:31:14.624Z,0
2018-09-03T00:32:24.579Z,0
2018-09-03T00:33:34.552Z,0
2018-09-03T00:34:44.526Z,0
2018-09-03T00:35:54.480Z,0
2018-09-03T00:37:04.443Z,0
2018-09-03T00:38:14.413Z,0
2018-09-03T00:39:24.374Z,0
2018-09-03T00:40:34.083Z,0
2018-09-03T00:41:44.042Z,0
2018-09-03T00:42:54.018Z,0
2018-09-03T00:44:03.983Z,0
2018-09-03T00:45:13.936Z,0
2018-09-03T00:46:23.895Z,0
2018-09-03T00:47:33.859Z,0
2018-09-03T00:48:43.829Z,0
2018-09-03T00:49:53.798Z,0
2018-09-03T00:51:03.760Z,0
2018-09-03T00:52:13.733Z,0
2018-09-03T00:53:23.467Z,0
2018-09-03T00:54:33.423Z,0
2018-09-03T00:55:43.388Z,0
2018-09-03T00:56:53.393Z,0
2018-09-03T00:58:02.833Z,0
2018-09-03T00:59:12.792Z,0
2018-09-03T01:00:22.761Z,0
2018-09-03T01:01:32.735Z,0
2018-09-03T01:02:42.692Z,0
2018-09-03T01:03:52.127Z,0
2018-09-03T01:05:01.827Z,0
2018-09-03T01:06:11.783Z,0
2018-09-03T01:07:21.494Z,0
2018-09-03T01:08:31.455Z,0
2018-09-03T01:09:41.439Z,0
2018-09-03T01:10:51.406Z,0
2018-09-03T01:12:01.121Z,0
2018-09-03T01:13:11.087Z,0
2018-09-03T01:14:20.899Z,0
2018-09-03T01:15:30.869Z,0
2018-09-03T01:16:40.572Z,0
2018-09-03T01:17:50.530Z,0
2018-09-03T01:19:00.288Z,0
2018-09-03T01:20:10.254Z,0
2018-09-03T01:21:20.213Z,0
2018-09-03T01:22:30.190Z,0
2018-09-03T01:23:39.892Z,0
2018-09-03T01:24:49.332Z,0
2018-09-03T01:25:59.048Z,0
2018-09-03T01:27:09.012Z,0
2018-09-03T01:28:18.978Z,0
2018-09-03T01:29:28.894Z,0
2018-09-03T01:30:38.889Z,0
2018-09-03T01:31:48.590Z,0
2018-09-03T01:32:58.561Z,0
2018-09-03T01:34:08.271Z,0
2018-09-03T01:35:17.976Z,0
2018-09-03T01:36:27.686Z,0
2018-09-03T01:37:37.652Z,0
2018-09-03T01:38:47.352Z,0
2018-09-03T01:39:57.081Z,0
2018-09-03T01:41:06.531Z,0
2018-09-03T01:42:16.546Z,0
2018-09-03T01:43:26.502Z,0
2018-09-03T01:44:36.208Z,0
2018-09-03T01:45:46.184Z,0
2018-09-03T01:46:56.140Z,0
2018-09-03T01:48:05.846Z,0
2018-09-03T01:49:15.543Z,0
2018-09-03T01:50:25.500Z,0
2018-09-03T01:51:35.206Z,0
2018-09-03T01:52:44.913Z,0
2018-09-03T01:53:55.359Z,0
2018-09-03T01:55:05.059Z,0
2018-09-03T01:56:15.002Z,0
2018-09-03T01:57:24.954Z,0
2018-09-03T01:58:34.923Z,0
2018-09-03T01:59:44.872Z,0
2018-09-03T02:00:54.833Z,0
2018-09-03T02:02:04.802Z,0
2018-09-03T02:03:14.503Z,0
2018-09-03T02:04:24.464Z,0
2018-09-03T02:05:34.182Z,0
2018-09-03T02:06:43.874Z,0
2018-09-03T02:07:53.824Z,0
2018-09-03T02:09:03.804Z,0
2018-09-03T02:10:13.515Z,0
2018-09-03T02:11:23.211Z,0
2018-09-03T02:12:33.169Z,0
2018-09-03T02:13:43.135Z,0
2018-09-03T02:14:53.106Z,0
2018-09-03T02:16:02.536Z,0
2018-09-03T02:17:12.488Z,0
2018-09-03T02:18:22.451Z,0
2018-09-03T02:19:32.424Z,0
2018-09-03T02:20:42.384Z,0
2018-09-03T02:21:52.335Z,0
2018-09-03T02:23:02.300Z,0
2018-09-03T02:24:12.251Z,0
2018-09-03T02:25:22.206Z,0
2018-09-03T02:26:32.233Z,0
2018-09-03T02:27:42.195Z,0
2018-09-03T02:28:52.162Z,0
2018-09-03T02:30:01.864Z,0
2018-09-03T02:31:11.820Z,0
2018-09-03T02:32:21.262Z,0
2018-09-03T02:33:30.959Z,0
2018-09-03T02:34:40.919Z,0
2018-09-03T02:35:50.878Z,0
2018-09-03T02:37:00.842Z,0
2018-09-03T02:38:10.812Z,0
2018-09-03T02:39:20.778Z,0
2018-09-03T02:40:30.731Z,0
2018-09-03T02:41:40.700Z,0
2018-09-03T02:42:50.669Z,0
2018-09-03T02:44:00.666Z,0
2018-09-03T02:45:10.657Z,0
2018-09-03T02:46:20.365Z,0
2018-09-03T02:47:30.335Z,0
2018-09-03T02:48:40.300Z,0
2018-09-03T02:49:50.278Z,0
2018-09-03T02:51:00.238Z,0
2018-09-03T02:52:10.187Z,0
2018-09-03T02:53:20.151Z,0
2018-09-03T02:54:29.868Z,0
2018-09-03T02:55:39.897Z,0
2018-09-03T02:56:49.606Z,0
2018-09-03T02:57:59.568Z,0
2018-09-03T02:59:09.607Z,0
2018-09-03T03:00:19.561Z,0
2018-09-03T03:01:29.003Z,0
2018-09-03T03:02:38.959Z,0
2018-09-03T03:03:48.914Z,0
2018-09-03T03:04:58.879Z,0
2018-09-03T03:06:08.863Z,0
2018-09-03T03:07:18.572Z,0
2018-09-03T03:08:28.524Z,0
2018-09-03T03:09:38.480Z,0
2018-09-03T03:10:48.436Z,0
2018-09-03T03:11:58.522Z,0
2018-09-03T03:13:08.241Z,0
2018-09-03T03:14:17.959Z,0
2018-09-03T03:15:27.695Z,0
2018-09-03T03:16:37.651Z,0
2018-09-03T03:17:47.408Z,0
2018-09-03T03:18:57.394Z,0
2018-09-03T03:20:07.361Z,0
2018-09-03T03:21:17.063Z,0
2018-09-03T03:22:27.029Z,0
2018-09-03T03:23:36.741Z,0
2018-09-03T03:24:46.727Z,0
2018-09-03T03:25:56.704Z,0
2018-09-03T03:27:06.409Z,0
2018-09-03T03:28:16.370Z,0
2018-09-03T03:29:26.083Z,0
2018-09-03T03:30:36.060Z,0
2018-09-03T03:31:46.030Z,0
2018-09-03T03:32:56.005Z,0
2018-09-03T03:34:05.992Z,0
2018-09-03T03:35:15.954Z,0
2018-09-03T03:36:25.917Z,0
2018-09-03T03:37:35.884Z,0
2018-09-03T03:38:45.845Z,0
2018-09-03T03:39:55.806Z,0
2018-09-03T03:41:05.760Z,0
2018-09-03T03:42:15.727Z,0
2018-09-03T03:43:25.699Z,0
2018-09-03T03:44:35.662Z,0
2018-09-03T03:45:45.110Z,4
2018-09-03T03:46:55.073Z,4
2018-09-03T03:48:05.037Z,0
2018-09-03T03:49:14.747Z,4
2018-09-03T03:50:24.705Z,4
2018-09-03T03:51:34.661Z,4
2018-09-03T03:52:44.622Z,4
2018-09-03T03:53:54.585Z,8
2018-09-03T03:55:04.695Z,8
2018-09-03T03:56:14.746Z,12
2018-09-03T03:57:24.704Z,16
2018-09-03T03:58:34.693Z,16
2018-09-03T03:59:44.405Z,20
2018-09-03T04:00:54.109Z,28
2018-09-03T04:02:04.064Z,32
2018-09-03T04:03:14.026Z,36
2018-09-03T04:04:23.788Z,44
2018-09-03T04:05:33.754Z,52
2018-09-03T04:06:43.717Z,64
2018-09-03T04:07:53.694Z,76
2018-09-03T04:09:03.655Z,88
2018-09-03T04:10:13.347Z,112
2018-09-03T04:11:23.305Z,136
2018-09-03T04:12:33.254Z,164
2018-09-03T04:13:42.974Z,196
2018-09-03T04:14:52.684Z,228
2018-09-03T04:16:02.657Z,256
2018-09-03T04:17:12.625Z,296
2018-09-03T04:18:22.333Z,332
2018-09-03T04:19:32.309Z,372
2018-09-03T04:20:42.278Z,412
2018-09-03T04:21:51.998Z,448
2018-09-03T04:23:02.319Z,492
2018-09-03T04:24:12.535Z,540
2018-09-03T04:25:22.518Z,592
2018-09-03T04:26:32.483Z,652
2018-09-03T04:27:42.450Z,712
2018-09-03T04:28:52.933Z,784
2018-09-03T04:30:02.839Z,864
2018-09-03T04:31:12.565Z,944
2018-09-03T04:32:22.553Z,1032
2018-09-03T04:33:32.783Z,1124
2018-09-03T04:34:42.755Z,1220
2018-09-03T04:35:52.464Z,1324
2018-09-03T04:37:02.433Z,1424
2018-09-03T04:38:12.397Z,1536
2018-09-03T04:39:22.093Z,1644
2018-09-03T04:40:32.055Z,1764
2018-09-03T04:41:42.037Z,1884
2018-09-03T04:42:52.002Z,2000
2018-09-03T04:44:01.958Z,2124
2018-09-03T04:45:11.664Z,2248
2018-09-03T04:46:21.642Z,2372
2018-09-03T04:47:31.335Z,2492
2018-09-03T04:48:41.339Z,2620
2018-09-03T04:49:51.033Z,2740
2018-09-03T04:51:01.004Z,2872
2018-09-03T04:52:10.474Z,2996
2018-09-03T04:53:20.452Z,3120
2018-09-03T04:54:30.436Z,3232
2018-09-03T04:55:40.225Z,3344
2018-09-03T04:56:50.212Z,3452
2018-09-03T04:58:00.171Z,3564
2018-09-03T04:59:09.884Z,3676
2018-09-03T05:00:19.872Z,3800
2018-09-03T05:01:29.835Z,3944
2018-09-03T05:02:39.549Z,4096
2018-09-03T05:03:49.254Z,4248
2018-09-03T05:04:59.223Z,4388
2018-09-03T05:06:09.455Z,4520
2018-09-03T05:07:19.543Z,4656
2018-09-03T05:08:29.251Z,4816
2018-09-03T05:09:39.210Z,4960
2018-09-03T05:10:49.191Z,5136
2018-09-03T05:11:58.808Z,5260
2018-09-03T05:13:08.792Z,5332
2018-09-03T05:14:18.761Z,5380
2018-09-03T05:15:28.754Z,5392
2018-09-03T05:16:38.729Z,5380
2018-09-03T05:17:48.700Z,5384
2018-09-03T05:18:58.656Z,5412
2018-09-03T05:20:08.676Z,5436
2018-09-03T05:21:18.692Z,5480
2018-09-03T05:22:28.674Z,5516
2018-09-03T05:23:38.635Z,5556
2018-09-03T05:24:48.614Z,5564
2018-09-03T05:25:58.585Z,5580
2018-09-03T05:27:08.304Z,5584
2018-09-03T05:28:18.166Z,5576
2018-09-03T05:29:28.147Z,5580
2018-09-03T05:30:38.126Z,5580
2018-09-03T05:31:48.121Z,5592
2018-09-03T05:32:58.090Z,5596
2018-09-03T05:34:08.046Z,5616
2018-09-03T05:35:18.022Z,5652
2018-09-03T05:36:27.980Z,5720
2018-09-03T05:37:38.005Z,5772
2018-09-03T05:38:47.723Z,5756
2018-09-03T05:39:57.703Z,5744
2018-09-03T05:41:07.662Z,5720
2018-09-03T05:42:17.633Z,5704
2018-09-03T05:43:28.788Z,5696
2018-09-03T05:44:39.249Z,5712
2018-09-03T05:45:49.253Z,5760
2018-09-03T05:46:58.965Z,5848
2018-09-03T05:48:08.937Z,5996
2018-09-03T05:49:18.405Z,6160
2018-09-03T05:50:29.213Z,6344
2018-09-03T05:51:39.055Z,6532
2018-09-03T05:52:49.006Z,6716
2018-09-03T05:53:58.734Z,6900
2018-09-03T05:55:08.716Z,7084
2018-09-03T05:56:18.424Z,7240
2018-09-03T05:57:28.422Z,7388
2018-09-03T05:58:38.535Z,7484
2018-09-03T05:59:48.511Z,7576
2018-09-03T06:00:57.957Z,7652
2018-09-03T06:02:07.927Z,7712
2018-09-03T06:03:17.634Z,7784
2018-09-03T06:04:27.622Z,7852
2018-09-03T06:05:37.594Z,7888
2018-09-03T06:06:47.549Z,7916
2018-09-03T06:07:57.521Z,7920
2018-09-03T06:09:07.485Z,7916
2018-09-03T06:10:17.448Z,7936
2018-09-03T06:11:27.162Z,8000
2018-09-03T06:12:36.606Z,8104
2018-09-03T06:13:46.572Z,8240
2018-09-03T06:14:56.534Z,8396
2018-09-03T06:16:06.000Z,8552
2018-09-03T06:17:15.460Z,8708
2018-09-03T06:18:25.621Z,8860
2018-09-03T06:19:35.411Z,8996
2018-09-03T06:20:45.118Z,9112
2018-09-03T06:21:55.103Z,9212
2018-09-03T06:23:05.065Z,9296
2018-09-03T06:24:15.040Z,9356
2018-09-03T06:25:24.759Z,9408
2018-09-03T06:26:34.779Z,9436
2018-09-03T06:27:44.787Z,9436
2018-09-03T06:28:54.509Z,9404
2018-09-03T06:30:04.481Z,9348
2018-09-03T06:31:14.453Z,9364
2018-09-03T06:32:24.414Z,9444
2018-09-03T06:33:34.630Z,9548
2018-09-03T06:34:44.647Z,9652
2018-09-03T06:35:54.489Z,9744
2018-09-03T06:37:04.335Z,9836
2018-09-03T06:38:14.342Z,9948
2018-09-03T06:39:24.470Z,10040
2018-09-03T06:40:34.175Z,10132
2018-09-03T06:41:44.146Z,10204
2018-09-03T06:42:54.139Z,10284
2018-09-03T06:44:03.851Z,10368
2018-09-03T06:45:13.825Z,10436
2018-09-03T06:46:23.549Z,10508
2018-09-03T06:47:33.001Z,10592
2018-09-03T06:48:42.999Z,10680
2018-09-03T06:49:52.701Z,10792
2018-09-03T06:51:02.418Z,10892
2018-09-03T06:52:12.408Z,11000
2018-09-03T06:53:22.417Z,11116
2018-09-03T06:54:32.212Z,11252
2018-09-03T06:55:42.208Z,11376
2018-09-03T06:56:52.189Z,11476
2018-09-03T06:58:01.906Z,11528
2018-09-03T06:59:11.997Z,11600
2018-09-03T07:00:22.007Z,11688
2018-09-03T07:01:31.973Z,11796
2018-09-03T07:02:41.428Z,11924
2018-09-03T07:03:51.441Z,12036
2018-09-03T07:05:01.225Z,12164
2018-09-03T07:06:11.229Z,12300
2018-09-03T07:07:21.223Z,12440
2018-09-03T07:08:31.001Z,12580
2018-09-03T07:09:40.991Z,12732
2018-09-03T07:10:50.979Z,12864
2018-09-03T07:12:00.964Z,13008
2018-09-03T07:13:10.941Z,13144
2018-09-03T07:14:20.412Z,13316
2018-09-03T07:15:30.393Z,13496
2018-09-03T07:16:40.390Z,13668
2018-09-03T07:17:50.376Z,13768
2018-09-03T07:19:00.414Z,13852
2018-09-03T07:20:10.374Z,13988
2018-09-03T07:21:20.082Z,14080
2018-09-03T07:22:30.098Z,14196
2018-09-03T07:23:40.078Z,14240
2018-09-03T07:24:50.040Z,14048
2018-09-03T07:25:59.515Z,13884
2018-09-03T07:27:09.488Z,13572
2018-09-03T07:28:19.250Z,13504
2018-09-03T07:29:28.977Z,13580
2018-09-03T07:30:38.967Z,13728
2018-09-03T07:31:48.693Z,13864
2018-09-03T07:32:58.406Z,14064
2018-09-03T07:34:08.388Z,14464
2018-09-03T07:35:18.646Z,14960
2018-09-03T07:36:28.093Z,15388
2018-09-03T07:37:38.083Z,15896
2018-09-03T07:38:47.801Z,16420
2018-09-03T07:39:57.242Z,17072
2018-09-03T07:41:07.224Z,18080
2018-09-03T07:42:16.941Z,18880
2018-09-03T07:43:26.667Z,19808
2018-09-03T07:44:36.371Z,20768
2018-09-03T07:45:46.096Z,21504
2018-09-03T07:46:56.101Z,22048
2018-09-03T07:48:06.080Z,22496
2018-09-03T07:49:16.046Z,22880
2018-09-03T07:50:26.010Z,23552
2018-09-03T07:51:35.712Z,24448
2018-09-03T07:52:45.701Z,25632
2018-09-03T07:53:55.151Z,26880
2018-09-03T07:55:05.237Z,28256
2018-09-03T07:56:15.227Z,29344
2018-09-03T07:57:24.695Z,30752
2018-09-03T07:58:34.711Z,30848
2018-09-03T07:59:44.713Z,30080
2018-09-03T08:00:54.707Z,28768
2018-09-03T08:02:04.720Z,27392
2018-09-03T08:03:14.700Z,26208
2018-09-03T08:04:24.674Z,25664
2018-09-03T08:05:34.671Z,25344
2018-09-03T08:06:44.651Z,25056
2018-09-03T08:07:54.369Z,24864
2018-09-03T08:09:04.350Z,24768
2018-09-03T08:10:14.089Z,24640
2018-09-03T08:11:24.059Z,24416
2018-09-03T08:12:34.052Z,24096
2018-09-03T08:13:43.881Z,23936
2018-09-03T08:14:53.610Z,23872
2018-09-03T08:16:03.608Z,23872
2018-09-03T08:17:13.325Z,31104
2018-09-03T08:18:23.047Z,30080
2018-09-03T08:19:33.128Z,35520
2018-09-03T08:20:43.146Z,40288
2018-09-03T08:21:53.155Z,41056
2018-09-03T08:23:03.175Z,38272
2018-09-03T08:24:13.195Z,41056
2018-09-03T08:25:22.922Z,39648
2018-09-03T08:26:32.919Z,43040
2018-09-03T08:27:42.911Z,31264
2018-09-03T08:28:52.886Z,32384
2018-09-03T08:30:02.608Z,27392
2018-09-03T08:31:12.656Z,25824
2018-09-03T08:32:22.633Z,26816
2018-09-03T08:33:32.637Z,31392
2018-09-03T08:34:42.359Z,38624
2018-09-03T08:35:52.441Z,39840
2018-09-03T08:37:02.421Z,40928
2018-09-03T08:38:12.416Z,41216
2018-09-03T08:39:22.125Z,30240
2018-09-03T08:40:31.841Z,28608
2018-09-03T08:41:41.571Z,28544
2018-09-03T08:42:51.288Z,28064
2018-09-03T08:44:00.489Z,28256
2018-09-03T08:45:10.199Z,29184
2018-09-03T08:46:20.188Z,30560
2018-09-03T08:47:30.166Z,32704
2018-09-03T08:48:40.155Z,35584
2018-09-03T08:49:50.133Z,37600
2018-09-03T08:51:00.149Z,36512
2018-09-03T08:52:10.126Z,35360
2018-09-03T08:53:20.344Z,39232
2018-09-03T08:54:30.077Z,49760
2018-09-03T08:55:40.056Z,58976
2018-09-03T08:56:50.353Z,57696
2018-09-03T08:58:00.495Z,51648
2018-09-03T08:59:10.496Z,55904
2018-09-03T09:00:20.520Z,52832
2018-09-03T09:01:30.260Z,51424
2018-09-03T09:02:40.253Z,43392
2018-09-03T09:03:50.219Z,42880
2018-09-03T09:05:00.276Z,45088
2018-09-03T09:06:10.107Z,42240
2018-09-03T09:07:20.108Z,60800
2018-09-03T09:08:29.827Z,51744
2018-09-03T09:09:39.584Z,35648
2018-09-03T09:10:49.584Z,41408
2018-09-03T09:11:59.595Z,41312
2018-09-03T09:13:09.579Z,43104
2018-09-03T09:14:19.306Z,63072
2018-09-03T09:15:29.031Z,60736
2018-09-03T09:16:39.013Z,60384
2018-09-03T09:17:49.265Z,49664
2018-09-03T09:18:59.005Z,53664
2018-09-03T09:20:09.004Z,59136
2018-09-03T09:21:19.231Z,59360
2018-09-03T09:22:29.219Z,57856
2018-09-03T09:23:39.215Z,61952
2018-09-03T09:24:49.200Z,63680
2018-09-03T09:25:59.206Z,61120
2018-09-03T09:27:09.174Z,62560
2018-09-03T09:28:18.953Z,65600
2018-09-03T09:29:28.664Z,65408
2018-09-03T09:30:38.642Z,64000
2018-09-03T09:31:48.625Z,65376
2018-09-03T09:32:58.370Z,68032
2018-09-03T09:34:08.096Z,68096
2018-09-03T09:35:18.079Z,68192
2018-09-03T09:36:27.807Z,68736
2018-09-03T09:37:37.804Z,70400
2018-09-03T09:38:47.268Z,69696
2018-09-03T09:39:57.320Z,69760
2018-09-03T09:41:07.342Z,70880
2018-09-03T09:42:17.055Z,70496
2018-09-03T09:43:27.040Z,71456
2018-09-03T09:44:37.031Z,74496
2018-09-03T09:45:46.753Z,74976
2018-09-03T09:46:56.510Z,75904
2018-09-03T09:48:06.233Z,75936
2018-09-03T09:49:15.710Z,77120
2018-09-03T09:50:25.706Z,78464
2018-09-03T09:51:35.687Z,78048
2018-09-03T09:52:45.717Z,77504
2018-09-03T09:53:55.437Z,80544
2018-09-03T09:55:05.057Z,83296
2018-09-03T09:56:15.298Z,82496
2018-09-03T09:57:25.286Z,79424
2018-09-03T09:58:34.519Z,81696
2018-09-03T09:59:44.554Z,86912
2018-09-03T10:00:54.537Z,85920
2018-09-03T10:02:04.288Z,84384
2018-09-03T10:03:14.009Z,89728
2018-09-03T10:04:24.013Z,88288
2018-09-03T10:05:34.317Z,88512
2018-09-03T10:06:44.063Z,89344
2018-09-03T10:07:54.069Z,90336
2018-09-03T10:09:03.635Z,88448
2018-09-03T10:10:13.638Z,92608
2018-09-03T10:11:23.647Z,84832
2018-09-03T10:12:33.654Z,85760
2018-09-03T10:13:43.639Z,88256
2018-09-03T10:14:53.378Z,94656
2018-09-03T10:16:03.371Z,93920
2018-09-03T10:17:13.377Z,88576
2018-09-03T10:18:23.377Z,87008
2018-09-03T10:19:33.101Z,87136
2018-09-03T10:20:43.068Z,91008
2018-09-03T10:21:53.051Z,95168
2018-09-03T10:23:03.038Z,92512
2018-09-03T10:24:13.035Z,95936
2018-09-03T10:25:22.777Z,94048
2018-09-03T10:26:32.763Z,94016
2018-09-03T10:27:42.222Z,99456
2018-09-03T10:28:52.204Z,99488
2018-09-03T10:30:02.248Z,92960
2018-09-03T10:31:12.241Z,93632
2018-09-03T10:32:22.273Z,90304
2018-09-03T10:33:32.274Z,95008
2018-09-03T10:34:42.255Z,97632
2018-09-03T10:35:52.243Z,96800
2018-09-03T10:37:01.960Z,100640
2018-09-03T10:38:12.355Z,98432
2018-09-03T10:39:22.173Z,102048
2018-09-03T10:40:32.153Z,100992
2018-09-03T10:41:41.891Z,102304
2018-09-03T10:42:51.874Z,102080
2018-09-03T10:44:01.871Z,99584
2018-09-03T10:45:11.947Z,102784
2018-09-03T10:46:21.931Z,100064
2018-09-03T10:47:32.379Z,105696
2018-09-03T10:48:42.103Z,102784
2018-09-03T10:49:52.102Z,101312
2018-09-03T10:51:02.090Z,97440
2018-09-03T10:52:11.818Z,104608
2018-09-03T10:53:21.559Z,107392
2018-09-03T10:54:31.473Z,55808
2018-09-03T10:55:41.462Z,106752
2018-09-03T10:56:51.458Z,104448
2018-09-03T10:58:01.221Z,103104
2018-09-03T10:59:11.236Z,41664
2018-09-03T11:00:20.962Z,94688
2018-09-03T11:01:30.943Z,97408
2018-09-03T11:02:40.966Z,97312
2018-09-03T11:03:50.953Z,105568
2018-09-03T11:05:00.977Z,106688
2018-09-03T11:06:10.856Z,112416
2018-09-03T11:07:20.866Z,108192
2018-09-03T11:08:30.862Z,107392
2018-09-03T11:09:40.312Z,104416
2018-09-03T11:10:49.607Z,104256
2018-09-03T11:11:59.347Z,105600
2018-09-03T11:13:09.525Z,106336
2018-09-03T11:14:19.973Z,107936
2018-09-03T11:15:29.895Z,116704
2018-09-03T11:16:39.126Z,108960
2018-09-03T11:17:49.123Z,105056
2018-09-03T11:18:59.114Z,114080
2018-09-03T11:20:09.515Z,111424
2018-09-03T11:21:19.838Z,110624
2018-09-03T11:22:30.520Z,111680
2018-09-03T11:23:40.690Z,108736
2018-09-03T11:24:50.577Z,110144
2018-09-03T11:26:00.067Z,115008
2018-09-03T11:27:09.852Z,115104
2018-09-03T11:28:19.586Z,106656
2018-09-03T11:29:29.589Z,106976
2018-09-03T11:30:39.332Z,108416
2018-09-03T11:31:49.361Z,110304
2018-09-03T11:32:59.357Z,108704
2018-09-03T11:34:09.385Z,117120
2018-09-03T11:35:19.345Z,115776
2018-09-03T11:36:29.330Z,109664
2018-09-03T11:37:38.811Z,102176
2018-09-03T11:38:48.865Z,109024
2018-09-03T11:39:58.880Z,109664
2018-09-03T11:41:08.878Z,103872
2018-09-03T11:42:18.391Z,120064
2018-09-03T11:43:28.391Z,117920
2018-09-03T11:44:38.120Z,47168
2018-09-03T11:45:48.118Z,113408
2018-09-03T11:46:58.153Z,116320
2018-09-03T11:48:08.219Z,46720
2018-09-03T11:49:18.210Z,112640
2018-09-03T11:50:28.223Z,116224
2018-09-03T11:51:38.223Z,126432
2018-09-03T11:52:48.197Z,104576
2018-09-03T11:53:57.916Z,112704
2018-09-03T11:55:07.637Z,123168
2018-09-03T11:56:17.628Z,112832
2018-09-03T11:57:27.354Z,118848
2018-09-03T11:58:37.073Z,118112
2018-09-03T11:59:46.815Z,119840
2018-09-03T12:00:56.803Z,121504
2018-09-03T12:02:07.091Z,127360
2018-09-03T12:03:16.968Z,119712
2018-09-03T12:04:26.957Z,118592
2018-09-03T12:05:36.945Z,122368
2018-09-03T12:06:47.327Z,115680
2018-09-03T12:07:57.137Z,122848
2018-09-03T12:09:07.136Z,117728
2018-09-03T12:10:17.138Z,113824
2018-09-03T12:11:27.100Z,121216
2018-09-03T12:12:37.114Z,113792
2018-09-03T12:13:47.125Z,114240
2018-09-03T12:14:56.866Z,107744
2018-09-03T12:16:06.855Z,105824
2018-09-03T12:17:16.595Z,67328
2018-09-03T12:18:26.598Z,115072
2018-09-03T12:19:36.600Z,131136
2018-09-03T12:20:46.711Z,125120
2018-09-03T12:21:56.762Z,114784
2018-09-03T12:23:06.509Z,119808
2018-09-03T12:24:16.496Z,110912
2018-09-03T12:25:26.508Z,113568
2018-09-03T12:26:36.221Z,112512
2018-09-03T12:27:46.560Z,73600
2018-09-03T12:28:56.113Z,108640
2018-09-03T12:30:05.852Z,108192
2018-09-03T12:31:15.894Z,106880
2018-09-03T12:32:25.992Z,113312
2018-09-03T12:33:36.002Z,122528
2018-09-03T12:34:45.989Z,120320
2018-09-03T12:35:56.003Z,122752
2018-09-03T12:37:05.926Z,121568
2018-09-03T12:38:15.618Z,132192
2018-09-03T12:39:25.361Z,127904
2018-09-03T12:40:35.353Z,114880
2018-09-03T12:41:45.337Z,114240
2018-09-03T12:42:55.593Z,121568
2018-09-03T12:44:05.424Z,113728
2018-09-03T12:45:15.429Z,111136
2018-09-03T12:46:25.550Z,113440
2018-09-03T12:47:35.075Z,105440
2018-09-03T12:48:45.086Z,118432
2018-09-03T12:49:54.955Z,117632
2018-09-03T12:51:05.023Z,123648
2018-09-03T12:52:15.073Z,120544
2018-09-03T12:53:25.049Z,122720
2018-09-03T12:54:35.013Z,128160
2018-09-03T12:55:44.739Z,106080
2018-09-03T12:56:54.534Z,110528
2018-09-03T12:58:04.293Z,109984
2018-09-03T12:59:14.280Z,116256
2018-09-03T13:00:24.024Z,116896
2018-09-03T13:01:34.009Z,119616
2018-09-03T13:02:47.104Z,120544
2018-09-03T13:03:56.948Z,116448
2018-09-03T13:05:06.421Z,113952
2018-09-03T13:06:16.381Z,113696
2018-09-03T13:07:26.532Z,116896
2018-09-03T13:08:36.513Z,122208
2018-09-03T13:09:46.515Z,119072
2018-09-03T13:10:56.561Z,107680
2018-09-03T13:12:06.285Z,110976
2018-09-03T13:13:15.756Z,115808
2018-09-03T13:14:25.738Z,104256
2018-09-03T13:15:35.723Z,118688
2018-09-03T13:16:45.724Z,107072
2018-09-03T13:17:55.769Z,113056
2018-09-03T13:19:05.707Z,131968
2018-09-03T13:20:15.725Z,117920
2018-09-03T13:21:25.702Z,128064
2018-09-03T13:22:35.957Z,118496
2018-09-03T13:23:45.698Z,109056
2018-09-03T13:24:55.756Z,121440
2018-09-03T13:26:04.979Z,125120
2018-09-03T13:27:15.232Z,128864
2018-09-03T13:28:25.256Z,125984
2018-09-03T13:29:34.737Z,47616
2018-09-03T13:30:44.976Z,103808
2018-09-03T13:31:54.565Z,112608
2018-09-03T13:33:04.548Z,115168
2018-09-03T13:34:14.553Z,119040
2018-09-03T13:35:24.541Z,119520
2018-09-03T13:36:34.703Z,117216
2018-09-03T13:37:44.716Z,113440
2018-09-03T13:38:54.704Z,113856
2018-09-03T13:40:04.471Z,113056
2018-09-03T13:41:14.466Z,110784
2018-09-03T13:42:24.234Z,111456
2018-09-03T13:43:34.025Z,105440
2018-09-03T13:44:44.034Z,105088
2018-09-03T13:45:54.019Z,104736
2018-09-03T13:47:03.998Z,107168
2018-09-03T13:48:14.230Z,109600
2018-09-03T13:49:24.077Z,105088
2018-09-03T13:50:34.159Z,101664
2018-09-03T13:51:44.140Z,107936
2018-09-03T13:52:54.138Z,97792
2018-09-03T13:54:03.873Z,103936
2018-09-03T13:55:14.093Z,110528
2018-09-03T13:56:24.336Z,103904
2018-09-03T13:57:34.409Z,104256
2018-09-03T13:58:44.437Z,95456
2018-09-03T13:59:54.182Z,104000
2018-09-03T14:01:03.937Z,100608
2018-09-03T14:02:13.919Z,97728
2018-09-03T14:03:23.989Z,100992
2018-09-03T14:04:33.985Z,103552
2018-09-03T14:05:43.995Z,67968
2018-09-03T14:06:54.015Z,108960
2018-09-03T14:08:03.777Z,95968
2018-09-03T14:09:13.767Z,110112
2018-09-03T14:10:23.640Z,111104
2018-09-03T14:11:33.490Z,93024
2018-09-03T14:12:43.563Z,110880
2018-09-03T14:13:53.583Z,101088
2018-09-03T14:15:03.436Z,97088
2018-09-03T14:16:12.926Z,107552
2018-09-03T14:17:22.687Z,94048
2018-09-03T14:18:32.682Z,98784
2018-09-03T14:19:42.735Z,97312
2018-09-03T14:20:52.447Z,99520
2018-09-03T14:22:02.465Z,92160
2018-09-03T14:23:12.534Z,90592
2018-09-03T14:24:22.539Z,91936
2018-09-03T14:25:32.518Z,91200
2018-09-03T14:26:42.535Z,88160
2018-09-03T14:27:52.582Z,90784
2018-09-03T14:29:02.557Z,92544
2018-09-03T14:30:12.521Z,56704
2018-09-03T14:31:22.493Z,96736
2018-09-03T14:32:31.953Z,89792
2018-09-03T14:33:41.993Z,87680
2018-09-03T14:34:51.472Z,92896
2018-09-03T14:36:01.451Z,89312
2018-09-03T14:37:11.638Z,93344
2018-09-03T14:38:21.626Z,84192
2018-09-03T14:39:31.593Z,84288
2018-09-03T14:40:41.640Z,87712
2018-09-03T14:41:51.630Z,91520
2018-09-03T14:43:01.633Z,90560
2018-09-03T14:44:11.555Z,89024
2018-09-03T14:45:21.778Z,90080
2018-09-03T14:46:31.490Z,88224
2018-09-03T14:47:41.472Z,92640
2018-09-03T14:48:51.481Z,89440
2018-09-03T14:50:01.519Z,89120
2018-09-03T14:51:11.545Z,81568
2018-09-03T14:52:21.271Z,85536
2018-09-03T14:53:31.259Z,82752
2018-09-03T14:54:40.736Z,79520
2018-09-03T14:55:50.721Z,78816
2018-09-03T14:57:00.695Z,76992
2018-09-03T14:58:10.673Z,82368
2018-09-03T14:59:20.466Z,82752
2018-09-03T15:00:29.949Z,81760
2018-09-03T15:01:39.935Z,78816
2018-09-03T15:02:49.923Z,78848
2018-09-03T15:03:59.701Z,74688
2018-09-03T15:05:09.771Z,74048
2018-09-03T15:06:19.484Z,76384
2018-09-03T15:07:29.212Z,75200
2018-09-03T15:08:39.693Z,77440
2018-09-03T15:09:49.667Z,73056
2018-09-03T15:10:59.385Z,77120
2018-09-03T15:12:09.380Z,71104
2018-09-03T15:13:19.364Z,69120
2018-09-03T15:14:29.360Z,75296
2018-09-03T15:15:39.359Z,69760
2018-09-03T15:16:49.104Z,76224
2018-09-03T15:17:58.832Z,72576
2018-09-03T15:19:08.841Z,68672
2018-09-03T15:20:18.846Z,72288
2018-09-03T15:21:28.567Z,67424
2018-09-03T15:22:38.292Z,69056
2018-09-03T15:23:48.038Z,71136
2018-09-03T15:24:58.027Z,70496
2018-09-03T15:26:08.192Z,68032
2018-09-03T15:27:17.961Z,70624
2018-09-03T15:28:27.944Z,68640
2018-09-03T15:29:37.944Z,68480
2018-09-03T15:30:47.691Z,70464
2018-09-03T15:31:57.684Z,62656